Time,TemperatureF,DewpointF,PressureIn,WindDirection,WindDirectionDegrees,WindSpeedMPH,WindSpeedGustMPH,Humidity,HourlyPrecipIn,Conditions,Clouds,dailyrainin,SolarRadiationWatts/m^2,SoftwareType,DateUTC
2013-02-01 00:03:00,25.0,19.0,-100.00,NNW,338,5.0,11.0,77,0.00,,,0.30,0.000000,,2013-02-01 05:03:00,
2013-02-01 00:12:00,25.0,19.0,-100.00,NNW,338,5.0,11.0,77,0.00,,,0.30,0.000000,,2013-02-01 05:12:00,
2013-02-01 00:32:00,24.0,17.0,-100.00,NNW,335,4.0,7.0,73,0.00,,,0.27,0.000000,,2013-02-01 05:32:00,
2013-02-01 00:42:00,24.0,17.0,-100.00,NNW,335,4.0,7.0,73,0.00,,,0.27,0.000000,,2013-02-01 05:42:00,
2013-02-01 00:52:00,24.0,17.0,-100.00,NNW,335,4.0,7.0,73,0.00,,,0.27,0.000000,,2013-02-01 05:52:00,
2013-02-01 01:02:00,24.0,17.0,-100.00,NNW,335,4.0,7.0,73,0.00,,,0.27,0.000000,,2013-02-01 06:02:00,
2013-02-01 01:12:00,24.0,17.0,-100.00,NNW,335,4.0,7.0,73,0.00,,,0.27,0.000000,,2013-02-01 06:12:00,
2013-02-01 01:32:00,24.0,14.0,-100.00,WNW,282,5.0,11.0,66,0.00,,,0.26,0.000000,,2013-02-01 06:32:00,
2013-02-01 01:52:00,24.0,14.0,-100.00,WNW,282,5.0,11.0,66,0.00,,,0.26,0.000000,,2013-02-01 06:52:00,
2013-02-01 02:02:00,24.0,14.0,-100.00,WNW,282,5.0,11.0,66,0.00,,,0.26,0.000000,,2013-02-01 07:02:00,
2013-02-01 02:12:00,24.0,14.0,-100.00,WNW,282,5.0,11.0,66,0.00,,,0.26,0.000000,,2013-02-01 07:12:00,
2013-02-01 02:32:00,24.0,12.0,-100.00,West,279,8.0,23.0,60,0.00,,,0.25,0.000000,,2013-02-01 07:32:00,
2013-02-01 02:42:00,24.0,12.0,-100.00,West,279,8.0,23.0,60,0.00,,,0.25,0.000000,,2013-02-01 07:42:00,
2013-02-01 02:52:00,24.0,12.0,-100.00,West,279,8.0,23.0,60,0.00,,,0.25,0.000000,,2013-02-01 07:52:00,
2013-02-01 03:01:00,24.0,12.0,-100.00,West,279,8.0,23.0,60,0.00,,,0.25,0.000000,,2013-02-01 08:01:00,
2013-02-01 03:11:00,24.0,12.0,-100.00,West,279,8.0,23.0,60,0.00,,,0.25,0.000000,,2013-02-01 08:11:00,
2013-02-01 03:42:00,24.0,10.0,-100.00,West,262,7.0,17.0,55,0.00,,,0.20,0.000000,,2013-02-01 08:42:00,
2013-02-01 03:52:00,24.0,10.0,-100.00,West,262,7.0,17.0,55,0.00,,,0.20,0.000000,,2013-02-01 08:52:00,
2013-02-01 04:02:00,24.0,10.0,-100.00,West,262,7.0,17.0,55,0.00,,,0.20,0.000000,,2013-02-01 09:02:00,
2013-02-01 04:11:00,24.0,10.0,-100.00,West,262,7.0,17.0,55,0.00,,,0.20,0.000000,,2013-02-01 09:11:00,
2013-02-01 04:32:00,24.0,7.0,-100.00,West,278,6.0,17.0,47,0.00,,,0.18,0.000000,,2013-02-01 09:32:00,
2013-02-01 04:42:00,24.0,7.0,-100.00,West,278,6.0,17.0,47,0.00,,,0.18,0.000000,,2013-02-01 09:42:00,
2013-02-01 04:52:00,24.0,7.0,-100.00,West,278,6.0,17.0,47,0.00,,,0.18,0.000000,,2013-02-01 09:52:00,
2013-02-01 05:01:00,24.0,7.0,-100.00,West,278,6.0,17.0,47,0.00,,,0.18,0.000000,,2013-02-01 10:01:00,
2013-02-01 05:11:00,24.0,7.0,-100.00,West,278,6.0,17.0,47,0.00,,,0.18,0.000000,,2013-02-01 10:11:00,
2013-02-01 05:32:00,23.0,5.0,-100.00,WNW,290,3.0,11.0,45,0.00,,,0.14,0.000000,,2013-02-01 10:32:00,
2013-02-01 05:43:00,23.0,5.0,-100.00,WNW,290,3.0,11.0,45,0.00,,,0.14,0.000000,,2013-02-01 10:43:00,
2013-02-01 05:53:00,23.0,5.0,-100.00,WNW,290,3.0,11.0,45,0.00,,,0.14,0.000000,,2013-02-01 10:53:00,
2013-02-01 06:02:00,23.0,5.0,-100.00,WNW,290,3.0,11.0,45,0.00,,,0.14,0.000000,,2013-02-01 11:02:00,
2013-02-01 06:11:00,23.0,5.0,-100.00,WNW,290,3.0,11.0,45,0.00,,,0.14,0.000000,,2013-02-01 11:11:00,
2013-02-01 06:42:00,23.0,4.0,-100.00,WNW,302,6.0,16.0,43,0.00,,,0.12,0.000000,,2013-02-01 11:42:00,
2013-02-01 06:53:00,23.0,4.0,-100.00,WNW,302,6.0,16.0,43,0.00,,,0.12,0.000000,,2013-02-01 11:53:00,
2013-02-01 07:03:00,23.0,4.0,-100.00,WNW,302,6.0,16.0,43,0.00,,,0.12,0.000000,,2013-02-01 12:03:00,
2013-02-01 07:12:00,23.0,4.0,-100.00,WNW,302,6.0,16.0,43,0.00,,,0.12,0.000000,,2013-02-01 12:12:00,
2013-02-01 07:32:00,22.0,4.0,-100.00,West,278,5.0,15.0,45,0.00,,,0.01,1.000000,,2013-02-01 12:32:00,
2013-02-01 07:42:00,22.0,4.0,-100.00,West,278,5.0,15.0,45,0.00,,,0.01,1.000000,,2013-02-01 12:42:00,
2013-02-01 07:52:00,22.0,4.0,-100.00,West,278,5.0,15.0,45,0.00,,,0.01,1.000000,,2013-02-01 12:52:00,
2013-02-01 08:02:00,22.0,4.0,-100.00,West,278,5.0,15.0,45,0.00,,,0.01,1.000000,,2013-02-01 13:02:00,
2013-02-01 08:12:00,22.0,4.0,-100.00,West,278,5.0,15.0,45,0.00,,,0.01,1.000000,,2013-02-01 13:12:00,
2013-02-01 08:33:00,24.0,6.0,-100.00,WNW,300,7.0,14.0,45,0.00,,,0.00,33.000000,,2013-02-01 13:33:00,
2013-02-01 08:43:00,24.0,6.0,-100.00,WNW,300,7.0,14.0,45,0.00,,,0.00,33.000000,,2013-02-01 13:43:00,
2013-02-01 08:53:00,24.0,6.0,-100.00,WNW,300,7.0,14.0,45,0.00,,,0.00,33.000000,,2013-02-01 13:53:00,
2013-02-01 09:03:00,24.0,6.0,-100.00,WNW,300,7.0,14.0,45,0.00,,,0.00,33.000000,,2013-02-01 14:03:00,
2013-02-01 09:12:00,24.0,6.0,-100.00,WNW,300,7.0,14.0,45,0.00,,,0.00,33.000000,,2013-02-01 14:12:00,
2013-02-01 09:32:00,25.0,9.0,-100.00,NW,304,9.0,21.0,49,0.00,,,0.00,154.000000,,2013-02-01 14:32:00,
2013-02-01 09:42:00,25.0,9.0,-100.00,NW,304,9.0,21.0,49,0.00,,,0.00,154.000000,,2013-02-01 14:42:00,
2013-02-01 09:53:00,25.0,9.0,-100.00,NW,304,9.0,21.0,49,0.00,,,0.00,154.000000,,2013-02-01 14:53:00,
2013-02-01 10:03:00,25.0,9.0,-100.00,NW,304,9.0,21.0,49,0.00,,,0.00,154.000000,,2013-02-01 15:03:00,
2013-02-01 10:12:00,25.0,9.0,-100.00,NW,304,9.0,21.0,49,0.00,,,0.00,154.000000,,2013-02-01 15:12:00,
2013-02-01 10:33:00,26.0,9.0,-100.00,NW,306,6.0,19.0,49,0.00,,,0.00,136.000000,,2013-02-01 15:33:00,
2013-02-01 10:42:00,26.0,9.0,-100.00,NW,306,6.0,19.0,49,0.00,,,0.00,136.000000,,2013-02-01 15:42:00,
2013-02-01 10:52:00,26.0,9.0,-100.00,NW,306,6.0,19.0,49,0.00,,,0.00,136.000000,,2013-02-01 15:52:00,
2013-02-01 11:03:00,26.0,9.0,-100.00,NW,306,6.0,19.0,49,0.00,,,0.00,136.000000,,2013-02-01 16:03:00,
2013-02-01 11:12:00,26.0,9.0,-100.00,NW,306,6.0,19.0,49,0.00,,,0.00,136.000000,,2013-02-01 16:12:00,
2013-02-01 11:33:00,23.0,15.0,-100.00,NNW,329,12.0,25.0,72,0.00,,,0.00,128.000000,,2013-02-01 16:33:00,
2013-02-01 11:43:00,23.0,15.0,-100.00,NNW,329,12.0,25.0,72,0.00,,,0.00,128.000000,,2013-02-01 16:43:00,
2013-02-01 11:53:00,23.0,15.0,-100.00,NNW,329,12.0,25.0,72,0.00,,,0.00,128.000000,,2013-02-01 16:53:00,
2013-02-01 12:03:00,23.0,15.0,-100.00,NNW,329,12.0,25.0,72,0.00,,,0.00,128.000000,,2013-02-01 17:03:00,
2013-02-01 12:12:00,23.0,15.0,-100.00,NNW,329,12.0,25.0,72,0.00,,,0.00,128.000000,,2013-02-01 17:12:00,
2013-02-01 12:32:00,25.0,8.0,-100.00,NW,325,12.0,22.0,47,0.00,,,0.00,203.000000,,2013-02-01 17:32:00,
2013-02-01 12:42:00,25.0,8.0,-100.00,NW,325,12.0,22.0,47,0.00,,,0.00,203.000000,,2013-02-01 17:42:00,
2013-02-01 12:53:00,25.0,8.0,-100.00,NW,325,12.0,22.0,47,0.00,,,0.00,203.000000,,2013-02-01 17:53:00,
2013-02-01 13:03:00,25.0,8.0,-100.00,NW,325,12.0,22.0,47,0.00,,,0.00,203.000000,,2013-02-01 18:03:00,
2013-02-01 13:12:00,25.0,8.0,-100.00,NW,325,12.0,22.0,47,0.00,,,0.00,203.000000,,2013-02-01 18:12:00,
2013-02-01 13:33:00,26.0,8.0,-100.00,NNW,328,14.0,26.0,45,0.00,,,0.00,225.000000,,2013-02-01 18:33:00,
2013-02-01 13:42:00,26.0,8.0,-100.00,NNW,328,14.0,26.0,45,0.00,,,0.00,225.000000,,2013-02-01 18:42:00,
2013-02-01 13:53:00,26.0,8.0,-100.00,NNW,328,14.0,26.0,45,0.00,,,0.00,225.000000,,2013-02-01 18:53:00,
2013-02-01 14:03:00,26.0,8.0,-100.00,NNW,328,14.0,26.0,45,0.00,,,0.00,225.000000,,2013-02-01 19:03:00,
2013-02-01 14:12:00,26.0,8.0,-100.00,NNW,328,14.0,26.0,45,0.00,,,0.00,225.000000,,2013-02-01 19:12:00,
2013-02-01 14:42:00,25.0,7.0,-100.00,NW,322,14.0,30.0,45,0.00,,,0.00,264.000000,,2013-02-01 19:42:00,
2013-02-01 14:52:00,25.0,7.0,-100.00,NW,322,14.0,30.0,45,0.00,,,0.00,264.000000,,2013-02-01 19:52:00,
2013-02-01 15:02:00,25.0,7.0,-100.00,NW,322,14.0,30.0,45,0.00,,,0.00,264.000000,,2013-02-01 20:02:00,
2013-02-01 15:11:00,25.0,7.0,-100.00,NW,322,14.0,30.0,45,0.00,,,0.00,264.000000,,2013-02-01 20:11:00,
2013-02-01 15:42:00,24.0,5.0,-100.00,NW,322,12.0,27.0,44,0.00,,,0.00,140.000000,,2013-02-01 20:42:00,
2013-02-01 15:52:00,24.0,5.0,-100.00,NW,322,12.0,27.0,44,0.00,,,0.00,140.000000,,2013-02-01 20:52:00,
2013-02-01 16:02:00,24.0,5.0,-100.00,NW,322,12.0,27.0,44,0.00,,,0.00,140.000000,,2013-02-01 21:02:00,
2013-02-01 16:12:00,24.0,5.0,-100.00,NW,322,12.0,27.0,44,0.00,,,0.00,140.000000,,2013-02-01 21:12:00,
2013-02-01 16:32:00,23.0,3.0,-100.00,NW,318,14.0,28.0,42,0.00,,,0.00,84.000000,,2013-02-01 21:32:00,
2013-02-01 16:42:00,23.0,3.0,-100.00,NW,318,14.0,28.0,42,0.00,,,0.00,84.000000,,2013-02-01 21:42:00,
2013-02-01 16:53:00,23.0,3.0,-100.00,NW,318,14.0,28.0,42,0.00,,,0.00,84.000000,,2013-02-01 21:53:00,
2013-02-01 17:03:00,23.0,3.0,-100.00,NW,318,14.0,28.0,42,0.00,,,0.00,84.000000,,2013-02-01 22:03:00,
2013-02-01 17:11:00,23.0,3.0,-100.00,NW,318,14.0,28.0,42,0.00,,,0.00,84.000000,,2013-02-01 22:11:00,
2013-02-01 17:32:00,22.0,5.0,-100.00,NW,319,9.0,26.0,47,0.00,,,0.00,20.000000,,2013-02-01 22:32:00,
2013-02-01 17:42:00,22.0,5.0,-100.00,NW,319,9.0,26.0,47,0.00,,,0.00,20.000000,,2013-02-01 22:42:00,
2013-02-01 17:52:00,22.0,5.0,-100.00,NW,319,9.0,26.0,47,0.00,,,0.00,20.000000,,2013-02-01 22:52:00,
2013-02-01 18:02:00,22.0,5.0,-100.00,NW,319,9.0,26.0,47,0.00,,,0.00,20.000000,,2013-02-01 23:02:00,
2013-02-01 18:11:00,22.0,5.0,-100.00,NW,319,9.0,26.0,47,0.00,,,0.00,20.000000,,2013-02-01 23:11:00,
2013-02-01 18:42:00,20.0,4.0,-100.00,NW,318,7.0,21.0,49,0.00,,,0.00,0.000000,,2013-02-01 23:42:00,
2013-02-01 18:52:00,20.0,4.0,-100.00,NW,318,7.0,21.0,49,0.00,,,0.00,0.000000,,2013-02-01 23:52:00,
2013-02-01 19:02:00,20.0,4.0,-100.00,NW,318,7.0,21.0,49,0.00,,,0.00,0.000000,,2013-02-02 00:02:00,
2013-02-01 19:11:00,20.0,4.0,-100.00,NW,318,7.0,21.0,49,0.00,,,0.00,0.000000,,2013-02-02 00:11:00,
2013-02-01 19:32:00,20.0,7.0,-100.00,WNW,301,3.0,15.0,56,0.00,,,0.00,0.000000,,2013-02-02 00:32:00,
2013-02-01 19:42:00,20.0,7.0,-100.00,WNW,301,3.0,15.0,56,0.00,,,0.00,0.000000,,2013-02-02 00:42:00,
2013-02-01 19:52:00,20.0,7.0,-100.00,WNW,301,3.0,15.0,56,0.00,,,0.00,0.000000,,2013-02-02 00:52:00,
2013-02-01 20:03:00,20.0,7.0,-100.00,WNW,301,3.0,15.0,56,0.00,,,0.00,0.000000,,2013-02-02 01:03:00,
2013-02-01 20:11:00,20.0,7.0,-100.00,WNW,301,3.0,15.0,56,0.00,,,0.00,0.000000,,2013-02-02 01:11:00,
2013-02-01 20:32:00,19.0,10.0,-100.00,WNW,294,1.0,9.0,66,0.00,,,0.00,0.000000,,2013-02-02 01:32:00,
2013-02-01 20:42:00,19.0,10.0,-100.00,WNW,294,1.0,9.0,66,0.00,,,0.00,0.000000,,2013-02-02 01:42:00,
2013-02-01 20:52:00,19.0,10.0,-100.00,WNW,294,1.0,9.0,66,0.00,,,0.00,0.000000,,2013-02-02 01:52:00,
2013-02-01 21:01:00,19.0,10.0,-100.00,WNW,294,1.0,9.0,66,0.00,,,0.00,0.000000,,2013-02-02 02:01:00,
2013-02-01 21:11:00,19.0,10.0,-100.00,WNW,294,1.0,9.0,66,0.00,,,0.00,0.000000,,2013-02-02 02:11:00,
2013-02-01 21:42:00,20.0,8.0,-100.00,NW,315,7.0,18.0,58,0.00,,,0.00,0.000000,,2013-02-02 02:42:00,
2013-02-01 21:52:00,20.0,8.0,-100.00,NW,315,7.0,18.0,58,0.00,,,0.00,0.000000,,2013-02-02 02:52:00,
2013-02-01 22:02:00,20.0,8.0,-100.00,NW,315,7.0,18.0,58,0.00,,,0.00,0.000000,,2013-02-02 03:02:00,
2013-02-01 22:11:00,20.0,8.0,-100.00,NW,315,7.0,18.0,58,0.00,,,0.00,0.000000,,2013-02-02 03:11:00,
2013-02-01 22:42:00,20.0,9.0,-100.00,NW,319,6.0,17.0,61,0.00,,,0.00,0.000000,,2013-02-02 03:42:00,
2013-02-01 22:52:00,20.0,9.0,-100.00,NW,319,6.0,17.0,61,0.00,,,0.00,0.000000,,2013-02-02 03:52:00,
2013-02-01 23:02:00,20.0,9.0,-100.00,NW,319,6.0,17.0,61,0.00,,,0.00,0.000000,,2013-02-02 04:02:00,
2013-02-01 23:11:00,20.0,9.0,-100.00,NW,319,6.0,17.0,61,0.00,,,0.00,0.000000,,2013-02-02 04:11:00,
2013-02-01 23:33:00,19.0,10.0,-100.00,NNW,348,8.0,13.0,66,0.00,,,0.00,0.000000,,2013-02-02 04:33:00,
2013-02-01 23:42:00,19.0,10.0,-100.00,NNW,348,8.0,13.0,66,0.00,,,0.00,0.000000,,2013-02-02 04:42:00,
2013-02-01 23:52:00,19.0,10.0,-100.00,NNW,348,8.0,13.0,66,0.00,,,0.00,0.000000,,2013-02-02 04:52:00,